Milwaukee, Wisconsin
Traffic Map
Current Weather Conditions
Milwaukee, Wisconsin
Broken Clouds
Broken Clouds
65°
Feels Like: 65°
Wind Chill: 65° Ceiling: 4700
Heat Index: 65° Visibility: 10mi
Dew Point: 49° Wind: 15mph
Humidity: 56% Direction: 20° (NNE)
Pressure: 30.03in Gusts: 24mph
Raw Report DataKMKE 071752Z 02013G21KT 10SM BKN047 18/09 A3003 RMK AO2 SLP167 T01830094 10194 20144 50007
Traffic Incident Summary
Active as of:
Severity:
Category:
InformationThere was an issue retrieving the traffic information for this location. Please try a different location or try again shortly.
Advertisements
Track Severe Weather on mobile